Time;durP1;ratioP1;P1;durP2;ratioP2;P2;SDS_P1;SDS_P2;PMS_P1;PMS_P2;Temp;Humidity;BMP_temperature;BMP_pressure;BME280_temperature;BME280_humidity;BME280_pressure;Samples;Min_cycle;Max_cycle;Signal;HPM_P1;HPM_P2
2022/01/26 00:06:42;;;;;;;12.67;4.37;;;-0.40;99.90;;;;;;5012905;28;20218;-55
2022/01/26 00:09:09;;;;;;;10.30;4.47;;;-0.40;99.90;;;;;;5012144;28;20259;-53
2022/01/26 00:11:37;;;;;;;8.97;4.30;;;-0.40;99.90;;;;;;5012428;28;20239;-51
2022/01/26 00:14:10;;;;;;;8.80;4.40;;;-0.40;99.90;;;;;;5001752;28;20633;-56
2022/01/26 00:16:39;;;;;;;8.07;4.13;;;-0.40;99.90;;;;;;4992832;28;20270;-54
2022/01/26 00:19:07;;;;;;;9.23;5.10;;;-0.40;99.90;;;;;;4992407;28;20185;-51
2022/01/26 00:21:46;;;;;;;11.50;4.10;;;-0.40;99.90;;;;;;4992722;28;20290;-54
2022/01/26 00:29:40;;;;;;;8.63;4.07;;;-0.30;99.90;;;;;;4992631;28;20180;-55
2022/01/26 00:40:42;;;;;;;11.20;5.93;;;-0.20;99.90;;;;;;4992779;28;20187;-54
2022/01/26 00:43:21;;;;;;;10.63;5.50;;;-0.30;99.90;;;;;;4992051;28;20666;-51
2022/01/26 00:45:49;;;;;;;10.63;4.80;;;-0.30;99.90;;;;;;4991959;28;20699;-57
2022/01/26 00:48:20;;;;;;;8.93;4.80;;;-0.20;99.90;;;;;;4992401;28;20191;-54
2022/01/26 00:50:50;;;;;;;10.03;5.27;;;-0.20;99.90;;;;;;4992449;28;20275;-60
2022/01/26 00:53:16;;;;;;;10.43;5.87;;;-0.20;99.90;;;;;;4992252;28;20201;-54
2022/01/26 00:55:42;;;;;;;7.03;3.43;;;-0.20;99.90;;;;;;4992524;28;20250;-55
2022/01/26 00:58:08;;;;;;;10.40;5.60;;;-0.20;99.90;;;;;;4991993;28;20196;-53
2022/01/26 01:00:34;;;;;;;11.50;5.70;;;-0.20;99.90;;;;;;4992207;28;20181;-52
2022/01/26 01:03:01;;;;;;;10.03;5.03;;;-0.20;99.90;;;;;;4992000;28;20635;-54
2022/01/26 01:05:34;;;;;;;10.10;4.77;;;-0.20;99.90;;;;;;4992089;28;20208;-52
2022/01/26 01:08:05;;;;;;;8.67;4.40;;;-0.20;99.90;;;;;;4991989;28;20203;-55
2022/01/26 01:10:31;;;;;;;9.73;4.93;;;-0.20;99.90;;;;;;4992351;28;20231;-54
2022/01/26 01:12:58;;;;;;;9.97;4.97;;;-0.20;99.90;;;;;;4992389;28;20612;-51
2022/01/26 01:15:26;;;;;;;11.23;4.70;;;-0.20;99.90;;;;;;4992123;28;20177;-55
2022/01/26 01:17:57;;;;;;;13.00;4.10;;;-0.10;99.90;;;;;;4991763;28;20184;-54
2022/01/26 01:30:41;;;;;;;7.87;3.40;;;-0.10;99.90;;;;;;4995757;28;20180;-55
2022/01/26 01:33:09;;;;;;;7.97;3.57;;;-0.10;99.90;;;;;;4995382;28;20246;-50
2022/01/26 01:35:39;;;;;;;6.67;3.37;;;-0.10;99.90;;;;;;4978831;28;20186;-53
2022/01/26 01:38:11;;;;;;;5.60;3.20;;;-0.10;99.90;;;;;;4995448;28;20663;-53
2022/01/26 01:40:39;;;;;;;6.43;3.33;;;-0.10;99.90;;;;;;4995784;28;20197;-53
2022/01/26 01:43:06;;;;;;;7.53;4.20;;;-0.10;99.90;;;;;;4995403;28;20193;-53
2022/01/26 01:45:33;;;;;;;7.80;3.37;;;-0.10;99.90;;;;;;4978098;28;20212;-55
2022/01/26 01:47:58;;;;;;;6.30;3.00;;;-0.10;99.90;;;;;;4995436;28;20624;-50
2022/01/26 01:50:24;;;;;;;5.00;2.57;;;-0.10;99.90;;;;;;4995734;28;20189;-50
2022/01/26 01:52:50;;;;;;;5.40;2.53;;;-0.10;99.90;;;;;;4995259;28;20197;-63
2022/01/26 01:55:16;;;;;;;7.00;3.30;;;-0.10;99.90;;;;;;5009350;28;20703;-52
2022/01/26 01:57:42;;;;;;;6.40;3.27;;;-0.10;99.90;;;;;;5014979;28;20211;-51
2022/01/26 02:00:09;;;;;;;8.07;3.33;;;-0.10;99.90;;;;;;5014645;28;20214;-55
2022/01/26 02:02:35;;;;;;;6.37;2.83;;;-0.10;99.90;;;;;;5015069;28;20187;-51
2022/01/26 02:05:02;;;;;;;6.27;3.00;;;-0.10;99.90;;;;;;5014683;28;20262;-54
2022/01/26 02:07:27;;;;;;;6.53;3.10;;;-0.10;99.90;;;;;;5014716;28;20187;-54
2022/01/26 02:09:53;;;;;;;6.50;3.00;;;-0.20;99.90;;;;;;5014517;28;20193;-54
2022/01/26 02:12:23;;;;;;;8.83;3.50;;;-0.20;99.90;;;;;;5014596;28;20180;-52
2022/01/26 02:14:54;;;;;;;6.57;3.40;;;-0.20;99.90;;;;;;4997470;28;20192;-50
2022/01/26 02:50:03;;;;;;;8.83;3.50;;;-0.20;99.90;;;;;;5014400;28;20287;-52
2022/01/26 03:02:41;;;;;;;6.37;3.07;;;-0.10;99.90;;;;;;5013453;28;20275;-52
2022/01/26 03:05:10;;;;;;;7.73;3.73;;;-0.10;99.90;;;;;;5013603;28;20398;-54
2022/01/26 03:10:09;;;;;;;4.17;2.60;;;-0.10;99.90;;;;;;4995803;28;20287;-51
2022/01/26 03:12:51;;;;;;;5.27;2.90;;;-0.10;99.90;;;;;;5013428;28;20263;-53
2022/01/26 03:15:23;;;;;;;8.63;4.23;;;-0.10;99.90;;;;;;5012979;28;20196;-53
2022/01/26 03:20:35;;;;;;;6.97;3.50;;;0.00;99.90;;;;;;4998521;28;20705;-53
2022/01/26 03:28:58;;;;;;;8.57;4.33;;;0.00;99.90;;;;;;5013348;28;20237;-53
2022/01/26 03:34:11;;;;;;;5.70;3.40;;;0.00;99.90;;;;;;5012611;28;20207;-53
2022/01/26 03:36:57;;;;;;;5.20;2.47;;;0.00;99.90;;;;;;4995592;28;20186;-54
2022/01/26 03:39:25;;;;;;;5.40;3.30;;;0.00;99.90;;;;;;5013261;28;20172;-53
2022/01/26 03:41:56;;;;;;;5.20;3.17;;;0.00;99.90;;;;;;5012629;28;20704;-53
2022/01/26 03:44:22;;;;;;;6.87;3.40;;;0.00;99.90;;;;;;5012682;28;20299;-51
2022/01/26 03:46:49;;;;;;;9.23;4.20;;;0.00;99.90;;;;;;5012616;28;20171;-52
2022/01/26 03:49:15;;;;;;;8.00;3.93;;;0.00;99.90;;;;;;5012379;28;20927;-51
2022/01/26 03:51:42;;;;;;;7.13;3.90;;;0.00;99.90;;;;;;5012785;28;20190;-51
2022/01/26 03:54:09;;;;;;;6.03;4.13;;;0.10;99.90;;;;;;5012301;28;20281;-54
2022/01/26 03:56:35;;;;;;;11.37;4.40;;;0.10;99.90;;;;;;5012583;28;20180;-51
2022/01/26 03:59:01;;;;;;;8.07;4.53;;;0.10;99.90;;;;;;5012061;28;20191;-52
2022/01/26 04:01:27;;;;;;;8.37;4.60;;;0.10;99.90;;;;;;4994982;28;20188;-55
2022/01/26 04:03:53;;;;;;;8.03;4.70;;;0.10;99.90;;;;;;5012367;28;20636;-49
2022/01/26 04:06:19;;;;;;;9.30;4.77;;;0.10;99.90;;;;;;4994532;28;20184;-53
2022/01/26 04:08:46;;;;;;;7.23;4.20;;;0.10;99.90;;;;;;5012435;28;20188;-56
2022/01/26 04:11:30;;;;;;;7.43;4.50;;;0.10;99.90;;;;;;5012007;28;20192;-52
2022/01/26 04:13:59;;;;;;;7.87;4.20;;;0.10;99.90;;;;;;5012208;28;20195;-50
2022/01/26 04:16:25;;;;;;;13.87;4.77;;;0.10;99.90;;;;;;5012457;28;20325;-55
2022/01/26 04:18:54;;;;;;;8.87;4.03;;;0.10;99.90;;;;;;4994490;28;20657;-52
2022/01/26 04:23:58;;;;;;;7.07;4.50;;;0.10;99.90;;;;;;5011968;28;20666;-53
2022/01/26 04:26:31;;;;;;;9.73;4.50;;;0.10;99.90;;;;;;4995734;28;20176;-52
2022/01/26 04:29:02;;;;;;;11.63;4.60;;;0.10;99.90;;;;;;5012165;28;20167;-53
2022/01/26 04:31:28;;;;;;;11.93;4.70;;;0.10;99.90;;;;;;5011348;28;20519;-51
2022/01/26 04:33:54;;;;;;;6.87;3.50;;;0.10;99.90;;;;;;4994074;28;20176;-52
2022/01/26 04:36:27;;;;;;;14.00;5.37;;;0.10;99.90;;;;;;5011718;28;20228;-56
2022/01/26 04:38:57;;;;;;;7.03;4.27;;;0.10;99.90;;;;;;5012156;28;20273;-50
2022/01/26 04:44:24;;;;;;;9.87;5.10;;;0.10;99.90;;;;;;4998442;28;20281;-52
2022/01/26 04:46:51;;;;;;;7.60;4.03;;;0.20;99.90;;;;;;5011997;28;20358;-49
2022/01/26 04:49:17;;;;;;;10.87;5.70;;;0.10;99.90;;;;;;5011144;28;20185;-54
2022/01/26 04:51:43;;;;;;;7.77;4.37;;;0.10;99.90;;;;;;5011940;28;20201;-52
2022/01/26 04:54:09;;;;;;;12.47;5.33;;;0.10;99.90;;;;;;5011201;28;20235;-50
2022/01/26 04:56:35;;;;;;;15.23;5.40;;;0.10;99.90;;;;;;5011045;28;20234;-54
2022/01/26 04:59:01;;;;;;;12.60;4.97;;;0.20;99.90;;;;;;5012387;28;20187;-53
2022/01/26 05:01:26;;;;;;;14.90;5.77;;;0.20;99.90;;;;;;5015730;28;20195;-53
2022/01/26 05:03:52;;;;;;;9.63;5.57;;;0.20;99.90;;;;;;5015418;28;20184;-53
2022/01/26 05:06:18;;;;;;;14.90;5.53;;;0.10;99.90;;;;;;5015849;28;20180;-54
2022/01/26 05:08:44;;;;;;;10.53;5.73;;;0.10;99.90;;;;;;5015549;28;20171;-54
2022/01/26 05:11:13;;;;;;;9.93;5.40;;;0.10;99.90;;;;;;4997226;28;20184;-50
2022/01/26 05:13:39;;;;;;;8.23;4.30;;;0.10;99.90;;;;;;5015587;28;20198;-49
2022/01/26 05:16:08;;;;;;;13.37;7.17;;;0.10;99.90;;;;;;5015210;28;20643;-51
2022/01/26 05:18:33;;;;;;;9.80;5.43;;;0.10;99.90;;;;;;5015569;28;20569;-53
2022/01/26 05:20:59;;;;;;;10.57;5.93;;;0.10;99.90;;;;;;4997534;28;20226;-52
2022/01/26 05:23:25;;;;;;;0.10;0.10;;;0.10;99.90;;;;;;5014638;28;20184;-49
2022/01/26 05:25:52;;;;;;;1.40;0.97;;;0.10;99.90;;;;;;5014949;28;20216;-54
2022/01/26 05:28:18;;;;;;;0.47;0.47;;;0.10;99.90;;;;;;5014458;28;20183;-57
2022/01/26 05:30:44;;;;;;;0.83;0.83;;;0.10;99.90;;;;;;5014892;28;20282;-53
2022/01/26 05:33:09;;;;;;;0.00;0.00;;;0.10;99.90;;;;;;5014517;28;20262;-54
2022/01/26 05:35:35;;;;;;;1.30;1.17;;;0.10;99.90;;;;;;5014458;28;20596;-53
2022/01/26 05:38:01;;;;;;;0.33;0.33;;;0.10;99.90;;;;;;5014663;28;20648;-63
2022/01/26 05:40:27;;;;;;;0.00;0.00;;;0.20;99.90;;;;;;4996629;28;20188;-55
2022/01/26 05:42:53;;;;;;;20.37;2.17;;;0.20;99.90;;;;;;5010658;28;20217;-52
2022/01/26 05:45:27;;;;;;;0.10;0.10;;;0.20;99.90;;;;;;5011451;28;20284;-52
2022/01/26 05:47:53;;;;;;;0.00;0.00;;;0.20;99.90;;;;;;5008808;28;20190;-54
2022/01/26 05:50:19;;;;;;;0.87;0.77;;;0.20;99.90;;;;;;5015466;28;20203;-52
2022/01/26 05:52:45;;;;;;;1.37;1.27;;;0.20;99.90;;;;;;4998593;28;20196;-53
2022/01/26 05:55:11;;;;;;;0.73;0.73;;;0.20;99.90;;;;;;4997641;28;20234;-53
2022/01/26 05:57:37;;;;;;;1.03;0.83;;;0.20;99.90;;;;;;4992422;28;20204;-54
2022/01/26 06:00:04;;;;;;;0.43;0.43;;;0.20;99.90;;;;;;4995974;28;20207;-61
2022/01/26 06:02:31;;;;;;;0.10;0.10;;;0.20;99.90;;;;;;4996442;28;20262;-52
2022/01/26 06:04:57;;;;;;;0.87;0.87;;;0.30;99.90;;;;;;5009284;28;20224;-52
2022/01/26 06:07:23;;;;;;;0.20;0.20;;;0.30;99.90;;;;;;5006198;28;20593;-52
2022/01/26 06:09:48;;;;;;;0.10;0.10;;;0.30;99.90;;;;;;4972274;28;20665;-53
2022/01/26 06:12:14;;;;;;;0.20;0.20;;;0.30;99.90;;;;;;5002145;28;20275;-55
2022/01/26 06:14:40;;;;;;;0.17;0.17;;;0.30;99.90;;;;;;4993435;28;20195;-54
2022/01/26 06:17:07;;;;;;;0.10;0.10;;;0.30;99.90;;;;;;4992088;28;20715;-53
2022/01/26 06:19:33;;;;;;;1.20;0.70;;;0.30;99.90;;;;;;5002243;28;20536;-51
2022/01/26 06:21:59;;;;;;;4.57;2.27;;;0.30;99.90;;;;;;5012566;28;20278;-52
2022/01/26 06:24:24;;;;;;;0.40;0.40;;;0.40;99.90;;;;;;4993292;28;20212;-53
2022/01/26 06:26:50;;;;;;;0.13;0.13;;;0.40;99.90;;;;;;4994087;28;20204;-56
2022/01/26 06:29:16;;;;;;;0.43;0.43;;;0.40;99.90;;;;;;5000305;28;20193;-55
2022/01/26 06:31:43;;;;;;;0.27;0.27;;;0.40;99.90;;;;;;4994445;28;20609;-56
2022/01/26 06:34:11;;;;;;;0.43;0.43;;;0.40;99.90;;;;;;4987259;28;20189;-56
2022/01/26 06:36:42;;;;;;;0.63;0.63;;;0.40;99.90;;;;;;5012790;28;20186;-53
2022/01/26 06:39:12;;;;;;;0.50;0.50;;;0.40;99.90;;;;;;5011574;28;20192;-51
2022/01/26 06:41:40;;;;;;;0.00;0.00;;;0.40;99.90;;;;;;5013220;28;20640;-52
2022/01/26 06:44:15;;;;;;;7.13;2.33;;;0.40;99.90;;;;;;5012442;28;20630;-62
2022/01/26 06:51:52;;;;;;;0.17;0.17;;;0.50;99.90;;;;;;5011979;28;20613;-58
2022/01/26 06:54:18;;;;;;;1.17;1.07;;;0.50;99.90;;;;;;5011103;28;20320;-57
2022/01/26 06:56:45;;;;;;;1.27;0.80;;;0.50;99.90;;;;;;5011167;28;20264;-56
2022/01/26 06:59:12;;;;;;;0.00;0.00;;;0.50;99.90;;;;;;5011105;28;20199;-54
2022/01/26 07:01:38;;;;;;;0.40;0.40;;;0.50;99.90;;;;;;5011812;28;20259;-58
2022/01/26 07:04:04;;;;;;;0.40;0.37;;;0.50;99.90;;;;;;5011376;28;20507;-54
2022/01/26 07:06:30;;;;;;;0.40;0.40;;;0.50;99.90;;;;;;5010721;28;20191;-56
2022/01/26 07:08:56;;;;;;;0.93;0.93;;;0.50;99.90;;;;;;4994543;28;20708;-52
2022/01/26 07:11:22;;;;;;;1.80;1.50;;;0.50;99.90;;;;;;5013184;28;20659;-56
2022/01/26 07:13:47;;;;;;;0.53;0.50;;;0.50;99.90;;;;;;5012909;28;20185;-55
2022/01/26 07:21:42;;;;;;;1.50;0.93;;;0.60;99.90;;;;;;4998088;28;20251;-58
2022/01/26 07:24:07;;;;;;;0.77;0.77;;;0.70;99.90;;;;;;5012226;28;20223;-63
2022/01/26 07:26:34;;;;;;;1.43;1.27;;;0.70;99.90;;;;;;5012958;28;20180;-52
2022/01/26 07:29:10;;;;;;;1.53;1.30;;;0.70;99.90;;;;;;5012702;28;20271;-52
2022/01/26 07:31:38;;;;;;;0.30;0.30;;;0.70;99.90;;;;;;5012260;28;20181;-56
2022/01/26 07:34:04;;;;;;;0.80;0.80;;;0.70;99.90;;;;;;5012413;28;20268;-56
2022/01/26 07:36:30;;;;;;;0.73;0.60;;;0.80;99.90;;;;;;5012411;28;20275;-55
2022/01/26 07:39:05;;;;;;;0.13;0.13;;;0.80;99.90;;;;;;5012102;28;20189;-54
2022/01/26 07:41:31;;;;;;;1.13;1.07;;;0.80;99.90;;;;;;5012164;28;20541;-53
2022/01/26 07:43:56;;;;;;;0.60;0.60;;;0.80;99.90;;;;;;5011681;28;20240;-57
2022/01/26 07:46:24;;;;;;;0.30;0.30;;;0.80;99.90;;;;;;4993527;28;20283;-52
2022/01/26 07:48:50;;;;;;;0.07;0.07;;;0.80;99.90;;;;;;5011420;28;20219;-56
2022/01/26 07:51:16;;;;;;;0.53;0.53;;;0.80;99.90;;;;;;4993855;28;20220;-55
2022/01/26 07:53:42;;;;;;;1.10;0.87;;;0.80;99.90;;;;;;5011878;28;20228;-57
2022/01/26 07:56:07;;;;;;;0.50;0.30;;;0.90;99.90;;;;;;5011942;28;20304;-56
2022/01/26 07:58:33;;;;;;;1.10;0.53;;;0.80;99.90;;;;;;4994108;28;20708;-57
2022/01/26 08:00:59;;;;;;;0.80;0.80;;;0.80;99.90;;;;;;4994552;28;20195;-59
2022/01/26 08:03:26;;;;;;;0.20;0.20;;;0.80;99.90;;;;;;4994404;28;20197;-56
2022/01/26 08:05:52;;;;;;;0.70;0.60;;;0.80;99.90;;;;;;5011507;28;20560;-57
2022/01/26 08:08:17;;;;;;;0.43;0.40;;;0.90;99.90;;;;;;5011041;28;20265;-57
2022/01/26 08:10:44;;;;;;;0.37;0.37;;;0.90;99.90;;;;;;4994293;28;20180;-55
2022/01/26 08:13:10;;;;;;;0.20;0.20;;;0.90;99.90;;;;;;5011880;28;20183;-62
2022/01/26 08:15:35;;;;;;;0.63;0.63;;;0.90;99.90;;;;;;5012054;28;20181;-58
2022/01/26 08:18:05;;;;;;;0.20;0.20;;;0.90;99.90;;;;;;5011946;28;20198;-54
2022/01/26 08:20:31;;;;;;;3.27;1.23;;;0.90;99.90;;;;;;5011169;28;20197;-56
2022/01/26 08:22:57;;;;;;;0.47;0.47;;;0.90;99.90;;;;;;5011732;28;20181;-56
2022/01/26 08:25:24;;;;;;;1.57;1.47;;;0.90;99.90;;;;;;5011239;28;20307;-57
2022/01/26 08:27:58;;;;;;;0.20;0.20;;;0.90;99.90;;;;;;5011659;28;20186;-59
2022/01/26 08:30:24;;;;;;;9.10;1.73;;;0.90;99.90;;;;;;5011618;28;20255;-55
2022/01/26 08:32:50;;;;;;;0.80;0.80;;;0.90;99.90;;;;;;5011586;28;20664;-54
2022/01/26 08:35:16;;;;;;;0.10;0.10;;;1.00;99.90;;;;;;5010677;28;20202;-55
2022/01/26 08:37:42;;;;;;;1.57;1.43;;;1.00;99.90;;;;;;5011521;28;20249;-54
2022/01/26 08:40:07;;;;;;;0.33;0.33;;;1.00;99.90;;;;;;5011312;28;20190;-57
2022/01/26 08:42:33;;;;;;;0.40;0.40;;;1.10;99.90;;;;;;5010772;28;20185;-54
2022/01/26 08:44:59;;;;;;;0.70;0.57;;;1.10;99.90;;;;;;5011053;28;20320;-51
2022/01/26 08:47:25;;;;;;;1.50;1.03;;;1.20;99.90;;;;;;5011000;28;20202;-56
2022/01/26 08:49:50;;;;;;;0.40;0.40;;;1.20;99.90;;;;;;5011607;28;20194;-57
2022/01/26 08:52:17;;;;;;;2.10;1.07;;;1.20;99.90;;;;;;5011217;28;20581;-58
2022/01/26 08:54:43;;;;;;;0.67;0.67;;;1.10;99.90;;;;;;5011106;28;20602;-55
2022/01/26 08:57:09;;;;;;;3.10;1.03;;;1.20;99.90;;;;;;5011186;28;20215;-53
2022/01/26 08:59:35;;;;;;;0.47;0.33;;;1.20;99.90;;;;;;5011338;28;20230;-54
2022/01/26 09:02:01;;;;;;;3.07;1.43;;;1.20;99.90;;;;;;5011184;28;20192;-55
2022/01/26 09:04:26;;;;;;;1.00;0.63;;;1.20;99.90;;;;;;4992262;28;20663;-56
2022/01/26 09:06:55;;;;;;;1.40;1.30;;;1.30;99.90;;;;;;5011439;28;20192;-53
2022/01/26 09:09:23;;;;;;;0.10;0.10;;;1.40;99.90;;;;;;4992831;28;20198;-59
2022/01/26 09:11:50;;;;;;;2.17;1.33;;;1.40;99.90;;;;;;4993528;28;20621;-56
2022/01/26 09:14:23;;;;;;;0.80;0.80;;;1.40;99.90;;;;;;4999244;28;20193;-57
2022/01/26 09:16:52;;;;;;;0.40;0.40;;;1.30;99.90;;;;;;4991208;28;20187;-56
2022/01/26 09:19:29;;;;;;;2.00;0.97;;;1.30;99.90;;;;;;4991182;28;20591;-56
2022/01/26 09:22:01;;;;;;;2.40;1.70;;;1.30;99.90;;;;;;4991234;28;20197;-57
2022/01/26 09:24:29;;;;;;;0.83;0.83;;;1.40;99.90;;;;;;4991228;28;20218;-57
2022/01/26 09:26:55;;;;;;;0.20;0.20;;;1.50;99.90;;;;;;4991201;28;20178;-57
2022/01/26 09:29:21;;;;;;;0.63;0.63;;;1.70;99.90;;;;;;4991196;28;20631;-56
2022/01/26 09:31:47;;;;;;;0.63;0.63;;;1.80;99.90;;;;;;4990950;28;20193;-61
2022/01/26 09:34:17;;;;;;;0.60;0.60;;;1.90;99.90;;;;;;4991340;28;20192;-59
2022/01/26 09:36:44;;;;;;;0.50;0.50;;;2.00;99.90;;;;;;4973893;28;20194;-58
2022/01/26 09:39:11;;;;;;;0.50;0.50;;;2.00;99.90;;;;;;4991170;28;20222;-54
2022/01/26 09:41:38;;;;;;;1.90;0.83;;;2.00;99.90;;;;;;4973124;28;20193;-55
2022/01/26 09:44:04;;;;;;;1.53;1.43;;;2.00;99.90;;;;;;4990748;28;20547;-55
2022/01/26 09:46:30;;;;;;;0.30;0.30;;;2.00;99.90;;;;;;4974650;28;20663;-57
2022/01/26 09:48:57;;;;;;;0.50;0.50;;;2.10;99.90;;;;;;4994333;28;20187;-57
2022/01/26 09:51:23;;;;;;;0.40;0.33;;;2.10;99.90;;;;;;4994566;28;20217;-58
2022/01/26 09:54:09;;;;;;;1.33;1.23;;;2.10;99.90;;;;;;4994786;28;20215;-58
2022/01/26 09:56:35;;;;;;;1.07;0.60;;;2.00;99.90;;;;;;4994109;28;20211;-52
2022/01/26 09:59:01;;;;;;;0.50;0.50;;;2.00;99.90;;;;;;4994639;28;20215;-57
2022/01/26 10:01:27;;;;;;;1.57;1.47;;;2.10;99.90;;;;;;4993682;28;20631;-55
2022/01/26 10:03:53;;;;;;;1.30;1.20;;;2.20;99.90;;;;;;4976688;28;20212;-56
2022/01/26 10:06:27;;;;;;;0.37;0.37;;;2.30;99.90;;;;;;4994322;28;20215;-60
2022/01/26 10:09:13;;;;;;;19.63;2.33;;;2.20;99.90;;;;;;4994316;28;20338;-61
2022/01/26 10:17:25;;;;;;;0.23;0.23;;;2.10;99.90;;;;;;4994714;28;20687;-59
2022/01/26 10:19:58;;;;;;;1.50;1.07;;;2.00;99.90;;;;;;4994135;28;20204;-60
2022/01/26 10:22:29;;;;;;;0.10;0.10;;;2.10;99.90;;;;;;4993419;28;20193;-61
2022/01/26 10:25:21;;;;;;;0.73;0.73;;;2.10;99.90;;;;;;4994126;28;20219;-59
2022/01/26 10:27:51;;;;;;;0.40;0.40;;;2.10;99.90;;;;;;4989586;28;20201;-65
2022/01/26 10:30:19;;;;;;;0.00;0.00;;;2.20;99.90;;;;;;4994017;28;20183;-62
2022/01/26 10:32:46;;;;;;;0.50;0.50;;;2.30;99.90;;;;;;4993563;28;20176;-62
2022/01/26 10:35:14;;;;;;;0.50;0.50;;;2.40;99.90;;;;;;4993576;28;20195;-61
2022/01/26 10:37:54;;;;;;;1.60;0.90;;;2.50;99.90;;;;;;4975521;28;20663;-65
2022/01/26 10:40:23;;;;;;;0.77;0.70;;;2.40;99.90;;;;;;4993667;28;20484;-70
2022/01/26 10:43:12;;;;;;;0.13;0.13;;;2.50;99.90;;;;;;4993752;28;20266;-61
2022/01/26 10:45:51;;;;;;;2.10;1.57;;;2.50;99.90;;;;;;4993626;28;20220;-62
2022/01/26 10:49:05;;;;;;;1.20;0.80;;;2.40;99.90;;;;;;4993901;28;20183;-63
2022/01/26 10:54:20;;;;;;;4.43;1.00;;;2.20;99.90;;;;;;4995141;28;20193;-63
2022/01/26 10:56:47;;;;;;;0.70;0.70;;;2.20;99.90;;;;;;4997493;28;20642;-62
2022/01/26 10:59:14;;;;;;;1.30;0.90;;;2.30;99.90;;;;;;5012851;28;20290;-62
2022/01/26 11:01:39;;;;;;;0.83;0.83;;;2.30;99.90;;;;;;5012774;28;20990;-61
2022/01/26 11:04:07;;;;;;;5.50;1.27;;;2.30;99.90;;;;;;5013478;28;20198;-61
2022/01/26 11:06:33;;;;;;;2.43;0.97;;;2.20;99.90;;;;;;4995379;28;20206;-62
2022/01/26 11:09:10;;;;;;;2.00;1.70;;;2.20;99.90;;;;;;5012834;28;20175;-62
2022/01/26 11:11:39;;;;;;;1.43;0.47;;;2.10;99.90;;;;;;5012555;28;20203;-63
2022/01/26 11:14:22;;;;;;;0.13;0.13;;;1.90;99.90;;;;;;4995531;28;20263;-62
2022/01/26 11:16:54;;;;;;;1.07;1.03;;;1.90;99.90;;;;;;5013098;28;20191;-62
2022/01/26 11:19:21;;;;;;;1.67;1.43;;;2.00;99.90;;;;;;5012486;28;20192;-61
2022/01/26 11:21:47;;;;;;;1.77;1.63;;;2.00;99.90;;;;;;5011982;28;20190;-63
2022/01/26 11:24:20;;;;;;;0.10;0.10;;;2.00;99.90;;;;;;4994617;28;20189;-61
2022/01/26 11:27:03;;;;;;;1.60;1.17;;;2.00;99.90;;;;;;5012473;28;20187;-63
2022/01/26 11:29:34;;;;;;;0.50;0.50;;;2.00;99.90;;;;;;5012183;28;20178;-59
2022/01/26 11:32:14;;;;;;;0.60;0.60;;;1.80;99.90;;;;;;5012441;28;20174;-60
2022/01/26 11:34:41;;;;;;;0.77;0.63;;;1.70;99.90;;;;;;5008937;28;20547;-57
2022/01/26 11:37:11;;;;;;;0.20;0.20;;;1.50;99.90;;;;;;5011869;28;20220;-59
2022/01/26 11:45:19;;;;;;;0.70;0.70;;;1.30;99.90;;;;;;4988459;28;20256;-58
2022/01/26 11:48:26;;;;;;;0.10;0.10;;;1.30;99.90;;;;;;5011158;28;20286;-56
2022/01/26 11:51:03;;;;;;;0.10;0.10;;;1.30;99.90;;;;;;4994510;28;20194;-58
2022/01/26 11:53:30;;;;;;;0.83;0.83;;;1.30;99.90;;;;;;5010894;28;20536;-59
2022/01/26 11:56:07;;;;;;;0.30;0.30;;;1.40;99.90;;;;;;5010729;28;20245;-60
2022/01/26 11:58:44;;;;;;;0.80;0.50;;;1.40;99.90;;;;;;5011182;28;20344;-56
2022/01/26 12:01:30;;;;;;;0.07;0.07;;;1.30;99.90;;;;;;5010796;28;20203;-58
2022/01/26 12:04:04;;;;;;;0.43;0.43;;;1.40;99.90;;;;;;4994600;28;20202;-60
2022/01/26 12:06:47;;;;;;;0.20;0.20;;;1.40;99.90;;;;;;5010327;28;20260;-60
2022/01/26 12:09:14;;;;;;;1.00;0.90;;;1.50;99.90;;;;;;5008802;28;20409;-59
2022/01/26 12:11:40;;;;;;;0.20;0.20;;;1.40;99.90;;;;;;5010247;28;20183;-63
2022/01/26 12:14:12;;;;;;;0.07;0.07;;;1.40;99.90;;;;;;5009359;28;20220;-62
2022/01/26 12:16:46;;;;;;;3.23;0.50;;;1.30;99.90;;;;;;4992701;28;20623;-64
2022/01/26 12:19:41;;;;;;;0.43;0.43;;;1.20;99.90;;;;;;5009535;28;20249;-55
2022/01/26 12:38:50;;;;;;;2.47;2.10;;;1.30;99.90;;;;;;5011217;28;20277;-58
2022/01/26 12:41:32;;;;;;;1.00;1.00;;;1.50;99.90;;;;;;5011556;28;20217;-58
2022/01/26 12:44:09;;;;;;;5.20;1.47;;;1.50;99.90;;;;;;4996145;28;20520;-59
2022/01/26 12:46:37;;;;;;;0.23;0.23;;;1.50;99.90;;;;;;5010990;28;20228;-58
2022/01/26 12:49:18;;;;;;;0.13;0.13;;;1.50;99.90;;;;;;5010701;28;20300;-59
2022/01/26 12:51:44;;;;;;;1.30;0.60;;;1.30;99.90;;;;;;5011005;28;20255;-55
2022/01/26 12:54:11;;;;;;;0.43;0.40;;;1.30;99.90;;;;;;5011104;28;20578;-54
2022/01/26 12:56:37;;;;;;;0.20;0.20;;;1.20;99.90;;;;;;5010799;28;20268;-57
2022/01/26 12:59:04;;;;;;;0.40;0.40;;;1.20;99.90;;;;;;5011030;28;20265;-59
2022/01/26 13:01:30;;;;;;;2.63;0.77;;;1.20;99.90;;;;;;5011246;28;20192;-61
2022/01/26 13:03:59;;;;;;;0.50;0.50;;;1.20;99.90;;;;;;5011413;28;20179;-61
2022/01/26 13:06:27;;;;;;;0.03;0.03;;;1.30;99.90;;;;;;5011194;28;20217;-57
2022/01/26 13:08:59;;;;;;;1.70;0.97;;;1.30;99.90;;;;;;5011396;28;20241;-60
2022/01/26 13:11:33;;;;;;;0.20;0.20;;;1.40;99.90;;;;;;5011459;28;20186;-58
2022/01/26 13:14:16;;;;;;;1.47;1.37;;;1.40;99.90;;;;;;4993456;28;20187;-57
2022/01/26 13:20:46;;;;;;;0.20;0.20;;;1.30;99.90;;;;;;5010943;28;20178;-60
2022/01/26 13:22:58;;;;;;;0.33;0.33;;;1.30;99.90;;;;;;5003062;28;20258;-60
2022/01/26 13:57:51;;;;;;;1.97;1.00;;;0.90;99.90;;;;;;5014361;28;20181;-59
2022/01/26 14:00:20;;;;;;;1.13;1.03;;;0.90;99.90;;;;;;5009685;28;20615;-62
2022/01/26 14:02:49;;;;;;;1.40;1.30;;;0.90;99.90;;;;;;5008078;28;20552;-56
2022/01/26 14:05:15;;;;;;;0.50;0.50;;;0.80;99.90;;;;;;5011843;28;20216;-58
2022/01/26 14:07:40;;;;;;;1.93;0.73;;;0.80;99.90;;;;;;4984287;28;20570;-58
2022/01/26 14:10:07;;;;;;;0.53;0.53;;;0.80;99.90;;;;;;5007586;28;20194;-58
2022/01/26 14:12:38;;;;;;;0.43;0.43;;;0.70;99.90;;;;;;5012091;28;20278;-61
2022/01/26 14:15:07;;;;;;;0.43;0.43;;;0.70;99.90;;;;;;5005643;28;20308;-61
2022/01/26 14:17:42;;;;;;;2.40;1.40;;;0.70;99.90;;;;;;5000564;28;20675;-60
2022/01/26 14:20:16;;;;;;;1.33;1.23;;;0.80;99.90;;;;;;4992641;28;20558;-63
2022/01/26 14:23:14;;;;;;;0.17;0.17;;;0.70;99.90;;;;;;4994279;28;20197;-57
2022/01/26 14:25:42;;;;;;;1.53;1.43;;;0.70;99.90;;;;;;5000345;28;20228;-58
2022/01/26 14:28:10;;;;;;;2.13;1.77;;;0.70;99.90;;;;;;4992926;28;20202;-59
2022/01/26 14:30:47;;;;;;;0.53;0.53;;;0.70;99.90;;;;;;5000477;28;20194;-57
2022/01/26 14:52:48;;;;;;;0.63;0.63;;;0.60;99.90;;;;;;4994201;28;20200;-57
2022/01/26 15:33:18;;;;;;;3.80;0.87;;;0.40;99.90;;;;;;4992987;28;20620;-58
2022/01/26 15:51:21;;;;;;;1.03;1.03;;;0.40;99.90;;;;;;4990978;28;20734;-59
2022/01/26 16:07:24;;;;;;;4.03;1.07;;;0.50;99.90;;;;;;4992705;28;20200;-57
2022/01/26 16:20:49;;;;;;;2.77;0.97;;;0.50;99.90;;;;;;4990366;28;20205;-61
2022/01/26 16:26:36;;;;;;;2.30;1.60;;;0.50;99.90;;;;;;4991311;28;20236;-62
2022/01/26 17:43:17;;;;;;;16.23;3.30;;;0.50;99.90;;;;;;4971660;28;20185;-62
2022/01/26 18:13:24;;;;;;;17.70;3.63;;;0.60;99.90;;;;;;4995126;28;20218;-64
2022/01/26 18:15:58;;;;;;;0.90;0.90;;;0.60;99.90;;;;;;5010962;28;20198;-63
2022/01/26 18:50:32;;;;;;;1.23;1.23;;;0.40;99.90;;;;;;4985292;28;20216;-60
2022/01/26 18:52:58;;;;;;;0.70;0.70;;;0.40;99.90;;;;;;4993151;28;20653;-64
2022/01/26 18:55:24;;;;;;;1.17;1.17;;;0.50;99.90;;;;;;5002561;28;20240;-61
2022/01/26 18:57:50;;;;;;;5.13;2.37;;;0.50;99.90;;;;;;4994121;28;20213;-61
2022/01/26 19:00:16;;;;;;;2.30;1.57;;;0.50;99.90;;;;;;4994444;28;20197;-66
2022/01/26 19:02:42;;;;;;;3.37;2.33;;;0.40;99.90;;;;;;4990170;28;20194;-61
2022/01/26 19:05:09;;;;;;;1.70;1.60;;;0.40;99.90;;;;;;4994174;28;20217;-62
2022/01/26 19:07:35;;;;;;;5.70;1.33;;;0.50;99.90;;;;;;4994010;28;20236;-63
2022/01/26 19:10:02;;;;;;;10.43;3.88;;;0.50;99.90;;;;;;5003106;28;20677;-63
2022/01/26 19:12:32;;;;;;;3.37;2.10;;;0.40;99.90;;;;;;4989410;28;20244;-63
2022/01/26 19:15:02;;;;;;;1.57;1.47;;;0.40;99.90;;;;;;5008759;28;20251;-63
2022/01/26 19:17:36;;;;;;;0.57;0.57;;;0.40;99.90;;;;;;5012705;28;20193;-64
2022/01/26 19:25:38;;;;;;;1.40;1.20;;;0.40;99.90;;;;;;4993975;28;20230;-62
2022/01/26 19:28:16;;;;;;;0.67;0.67;;;0.40;99.90;;;;;;4993673;28;20206;-63
2022/01/26 19:46:27;;;;;;;2.43;2.13;;;0.40;99.90;;;;;;5009284;28;20315;-62
2022/01/26 19:51:46;;;;;;;1.77;1.43;;;0.40;99.90;;;;;;4993506;28;20228;-63
2022/01/26 19:54:12;;;;;;;0.70;0.70;;;0.40;99.90;;;;;;4991399;28;20329;-64
2022/01/26 19:56:38;;;;;;;0.20;0.20;;;0.40;99.90;;;;;;4980389;28;20726;-62
2022/01/26 19:59:04;;;;;;;1.70;1.10;;;0.40;99.90;;;;;;4992724;28;20218;-65
2022/01/26 20:01:29;;;;;;;0.70;0.70;;;0.40;99.90;;;;;;4961807;28;20218;-64
2022/01/26 20:03:55;;;;;;;0.30;0.30;;;0.40;99.90;;;;;;4992619;28;20516;-64
2022/01/26 20:06:21;;;;;;;0.10;0.10;;;0.40;99.90;;;;;;4978575;28;20253;-63
2022/01/26 20:11:28;;;;;;;3.73;1.73;;;0.30;99.90;;;;;;4975960;28;20202;-64
2022/01/26 20:14:00;;;;;;;0.57;0.57;;;0.30;99.90;;;;;;4992532;28;20618;-63
2022/01/26 20:16:26;;;;;;;1.67;0.53;;;0.30;99.90;;;;;;4987641;28;20651;-63